sensor_id;sensor_type;location;lat;lon;timestamp;P1;durP1;ratioP1;P2;durP2;ratioP2
20533;SDS011;12929;56.822;26.056;2022-09-06T00:01:11;2.65;;;1.00;;
20533;SDS011;12929;56.822;26.056;2022-09-06T00:03:40;1.30;;;0.90;;
20533;SDS011;12929;56.822;26.056;2022-09-06T00:06:10;0.80;;;0.80;;
20533;SDS011;12929;56.822;26.056;2022-09-06T00:08:42;1.30;;;0.88;;
20533;SDS011;12929;56.822;26.056;2022-09-06T00:11:11;2.40;;;1.10;;
20533;SDS011;12929;56.822;26.056;2022-09-06T00:13:39;2.80;;;1.10;;
20533;SDS011;12929;56.822;26.056;2022-09-06T00:16:08;2.20;;;1.00;;
20533;SDS011;12929;56.822;26.056;2022-09-06T00:18:38;1.52;;;1.10;;
20533;SDS011;12929;56.822;26.056;2022-09-06T00:21:17;1.52;;;0.90;;
20533;SDS011;12929;56.822;26.056;2022-09-06T00:23:46;2.42;;;1.00;;
20533;SDS011;12929;56.822;26.056;2022-09-06T00:26:14;2.17;;;0.90;;
20533;SDS011;12929;56.822;26.056;2022-09-06T00:28:42;2.58;;;0.93;;
20533;SDS011;12929;56.822;26.056;2022-09-06T00:31:14;2.22;;;0.90;;
20533;SDS011;12929;56.822;26.056;2022-09-06T00:33:44;2.80;;;1.10;;
20533;SDS011;12929;56.822;26.056;2022-09-06T00:36:12;3.03;;;1.15;;
20533;SDS011;12929;56.822;26.056;2022-09-06T00:38:41;2.10;;;0.98;;
20533;SDS011;12929;56.822;26.056;2022-09-06T00:41:10;1.63;;;0.97;;
20533;SDS011;12929;56.822;26.056;2022-09-06T00:43:39;1.50;;;0.80;;
20533;SDS011;12929;56.822;26.056;2022-09-06T00:46:08;0.87;;;0.80;;
20533;SDS011;12929;56.822;26.056;2022-09-06T00:48:41;1.90;;;0.90;;
20533;SDS011;12929;56.822;26.056;2022-09-06T00:51:10;2.22;;;0.90;;
20533;SDS011;12929;56.822;26.056;2022-09-06T00:53:41;1.90;;;1.00;;
20533;SDS011;12929;56.822;26.056;2022-09-06T00:56:09;2.10;;;0.90;;
20533;SDS011;12929;56.822;26.056;2022-09-06T00:58:37;1.70;;;0.90;;
20533;SDS011;12929;56.822;26.056;2022-09-06T01:01:05;3.25;;;0.98;;
20533;SDS011;12929;56.822;26.056;2022-09-06T01:03:33;1.67;;;0.98;;
20533;SDS011;12929;56.822;26.056;2022-09-06T01:06:21;2.95;;;0.95;;
20533;SDS011;12929;56.822;26.056;2022-09-06T01:08:58;1.63;;;0.83;;
20533;SDS011;12929;56.822;26.056;2022-09-06T01:11:51;1.45;;;0.85;;
20533;SDS011;12929;56.822;26.056;2022-09-06T01:27:32;2.15;;;0.98;;
20533;SDS011;12929;56.822;26.056;2022-09-06T01:30:10;1.20;;;0.90;;
20533;SDS011;12929;56.822;26.056;2022-09-06T01:38:01;2.20;;;1.10;;
20533;SDS011;12929;56.822;26.056;2022-09-06T01:40:30;2.85;;;0.85;;
20533;SDS011;12929;56.822;26.056;2022-09-06T01:43:02;2.00;;;0.88;;
20533;SDS011;12929;56.822;26.056;2022-09-06T01:57:26;1.27;;;0.90;;
20533;SDS011;12929;56.822;26.056;2022-09-06T02:00:15;2.53;;;0.90;;
20533;SDS011;12929;56.822;26.056;2022-09-06T02:05:38;1.35;;;0.85;;
20533;SDS011;12929;56.822;26.056;2022-09-06T02:08:08;2.13;;;0.98;;
20533;SDS011;12929;56.822;26.056;2022-09-06T02:10:48;1.70;;;0.90;;
20533;SDS011;12929;56.822;26.056;2022-09-06T02:13:38;0.98;;;0.70;;
20533;SDS011;12929;56.822;26.056;2022-09-06T02:16:07;1.55;;;0.80;;
20533;SDS011;12929;56.822;26.056;2022-09-06T02:18:43;1.83;;;0.90;;
20533;SDS011;12929;56.822;26.056;2022-09-06T02:21:17;0.95;;;0.80;;
20533;SDS011;12929;56.822;26.056;2022-09-06T02:23:48;1.40;;;0.90;;
20533;SDS011;12929;56.822;26.056;2022-09-06T02:26:20;1.53;;;1.00;;
20533;SDS011;12929;56.822;26.056;2022-09-06T02:28:51;3.33;;;0.90;;
20533;SDS011;12929;56.822;26.056;2022-09-06T02:34:20;1.27;;;0.90;;
20533;SDS011;12929;56.822;26.056;2022-09-06T02:36:48;1.30;;;1.00;;
20533;SDS011;12929;56.822;26.056;2022-09-06T02:39:16;1.48;;;1.15;;
20533;SDS011;12929;56.822;26.056;2022-09-06T02:41:44;2.17;;;1.10;;
20533;SDS011;12929;56.822;26.056;2022-09-06T02:44:13;1.45;;;1.00;;
20533;SDS011;12929;56.822;26.056;2022-09-06T02:46:41;2.47;;;1.40;;
20533;SDS011;12929;56.822;26.056;2022-09-06T02:49:09;2.03;;;1.00;;
20533;SDS011;12929;56.822;26.056;2022-09-06T02:51:37;2.20;;;1.10;;
20533;SDS011;12929;56.822;26.056;2022-09-06T02:54:06;1.80;;;1.10;;
20533;SDS011;12929;56.822;26.056;2022-09-06T02:56:33;1.45;;;1.00;;
20533;SDS011;12929;56.822;26.056;2022-09-06T02:59:03;1.70;;;1.10;;
20533;SDS011;12929;56.822;26.056;2022-09-06T03:01:31;2.78;;;1.10;;
20533;SDS011;12929;56.822;26.056;2022-09-06T03:03:59;1.83;;;1.10;;
20533;SDS011;12929;56.822;26.056;2022-09-06T03:06:28;1.40;;;1.00;;
20533;SDS011;12929;56.822;26.056;2022-09-06T03:08:56;2.13;;;1.08;;
20533;SDS011;12929;56.822;26.056;2022-09-06T03:11:26;1.87;;;1.00;;
20533;SDS011;12929;56.822;26.056;2022-09-06T03:13:54;1.52;;;1.02;;
20533;SDS011;12929;56.822;26.056;2022-09-06T03:16:22;2.93;;;1.00;;
20533;SDS011;12929;56.822;26.056;2022-09-06T03:18:50;1.98;;;1.00;;
20533;SDS011;12929;56.822;26.056;2022-09-06T03:21:17;2.40;;;1.20;;
20533;SDS011;12929;56.822;26.056;2022-09-06T03:23:45;3.38;;;1.30;;
20533;SDS011;12929;56.822;26.056;2022-09-06T03:26:13;2.10;;;1.10;;
20533;SDS011;12929;56.822;26.056;2022-09-06T03:28:41;3.20;;;1.45;;
20533;SDS011;12929;56.822;26.056;2022-09-06T03:31:09;2.88;;;0.90;;
20533;SDS011;12929;56.822;26.056;2022-09-06T03:33:37;2.80;;;1.20;;
20533;SDS011;12929;56.822;26.056;2022-09-06T03:36:04;1.85;;;1.05;;
20533;SDS011;12929;56.822;26.056;2022-09-06T03:38:32;2.42;;;1.08;;
20533;SDS011;12929;56.822;26.056;2022-09-06T03:41:00;1.65;;;1.05;;
20533;SDS011;12929;56.822;26.056;2022-09-06T03:43:28;2.20;;;0.90;;
20533;SDS011;12929;56.822;26.056;2022-09-06T03:45:57;2.40;;;1.00;;
20533;SDS011;12929;56.822;26.056;2022-09-06T03:48:27;1.53;;;0.83;;
20533;SDS011;12929;56.822;26.056;2022-09-06T03:50:56;1.92;;;1.10;;
20533;SDS011;12929;56.822;26.056;2022-09-06T03:53:25;1.70;;;1.00;;
20533;SDS011;12929;56.822;26.056;2022-09-06T03:55:55;1.50;;;1.05;;
20533;SDS011;12929;56.822;26.056;2022-09-06T03:58:27;2.08;;;1.23;;
20533;SDS011;12929;56.822;26.056;2022-09-06T04:01:00;1.23;;;0.90;;
20533;SDS011;12929;56.822;26.056;2022-09-06T04:03:30;1.80;;;1.00;;
20533;SDS011;12929;56.822;26.056;2022-09-06T04:05:58;1.40;;;1.00;;
20533;SDS011;12929;56.822;26.056;2022-09-06T04:08:26;1.17;;;0.80;;
20533;SDS011;12929;56.822;26.056;2022-09-06T04:10:54;2.08;;;1.00;;
20533;SDS011;12929;56.822;26.056;2022-09-06T04:13:23;3.67;;;1.00;;
20533;SDS011;12929;56.822;26.056;2022-09-06T04:15:52;4.80;;;1.30;;
20533;SDS011;12929;56.822;26.056;2022-09-06T04:18:21;2.05;;;0.93;;
20533;SDS011;12929;56.822;26.056;2022-09-06T04:20:50;1.88;;;1.00;;
20533;SDS011;12929;56.822;26.056;2022-09-06T04:23:19;1.88;;;1.00;;
20533;SDS011;12929;56.822;26.056;2022-09-06T04:25:48;2.60;;;1.05;;
20533;SDS011;12929;56.822;26.056;2022-09-06T04:28:17;2.08;;;1.20;;
20533;SDS011;12929;56.822;26.056;2022-09-06T04:30:50;2.47;;;1.10;;
20533;SDS011;12929;56.822;26.056;2022-09-06T04:33:19;1.95;;;1.00;;
20533;SDS011;12929;56.822;26.056;2022-09-06T04:35:52;1.30;;;1.03;;
20533;SDS011;12929;56.822;26.056;2022-09-06T04:38:23;2.63;;;1.13;;
20533;SDS011;12929;56.822;26.056;2022-09-06T04:40:52;2.15;;;0.90;;
20533;SDS011;12929;56.822;26.056;2022-09-06T04:43:21;4.32;;;1.20;;
20533;SDS011;12929;56.822;26.056;2022-09-06T04:45:49;2.92;;;1.13;;
20533;SDS011;12929;56.822;26.056;2022-09-06T04:48:17;2.30;;;1.15;;
20533;SDS011;12929;56.822;26.056;2022-09-06T04:50:46;3.50;;;1.23;;
20533;SDS011;12929;56.822;26.056;2022-09-06T04:53:13;1.27;;;1.00;;
20533;SDS011;12929;56.822;26.056;2022-09-06T04:55:41;1.20;;;0.90;;
20533;SDS011;12929;56.822;26.056;2022-09-06T04:58:09;2.90;;;1.20;;
20533;SDS011;12929;56.822;26.056;2022-09-06T05:00:36;2.28;;;1.00;;
20533;SDS011;12929;56.822;26.056;2022-09-06T05:03:04;1.65;;;1.00;;
20533;SDS011;12929;56.822;26.056;2022-09-06T05:05:32;2.60;;;1.00;;
20533;SDS011;12929;56.822;26.056;2022-09-06T05:08:00;1.60;;;0.98;;
20533;SDS011;12929;56.822;26.056;2022-09-06T05:10:27;1.42;;;1.08;;
20533;SDS011;12929;56.822;26.056;2022-09-06T05:12:55;2.05;;;1.20;;
20533;SDS011;12929;56.822;26.056;2022-09-06T05:15:23;1.08;;;0.80;;
20533;SDS011;12929;56.822;26.056;2022-09-06T05:17:51;1.97;;;1.20;;
20533;SDS011;12929;56.822;26.056;2022-09-06T05:20:18;2.08;;;1.10;;
20533;SDS011;12929;56.822;26.056;2022-09-06T05:22:52;1.85;;;1.10;;
20533;SDS011;12929;56.822;26.056;2022-09-06T05:25:20;2.63;;;1.17;;
20533;SDS011;12929;56.822;26.056;2022-09-06T05:27:48;2.97;;;1.63;;
20533;SDS011;12929;56.822;26.056;2022-09-06T05:30:16;2.17;;;1.23;;
20533;SDS011;12929;56.822;26.056;2022-09-06T05:32:44;3.20;;;1.30;;
20533;SDS011;12929;56.822;26.056;2022-09-06T05:35:11;2.95;;;1.90;;
20533;SDS011;12929;56.822;26.056;2022-09-06T05:37:39;3.47;;;1.58;;
20533;SDS011;12929;56.822;26.056;2022-09-06T05:40:07;2.05;;;1.00;;
20533;SDS011;12929;56.822;26.056;2022-09-06T05:42:35;1.65;;;1.13;;
20533;SDS011;12929;56.822;26.056;2022-09-06T05:45:03;1.48;;;1.00;;
20533;SDS011;12929;56.822;26.056;2022-09-06T05:47:32;1.55;;;1.05;;
20533;SDS011;12929;56.822;26.056;2022-09-06T05:50:01;2.50;;;1.20;;
20533;SDS011;12929;56.822;26.056;2022-09-06T05:52:30;1.25;;;1.13;;
20533;SDS011;12929;56.822;26.056;2022-09-06T05:55:00;1.20;;;1.00;;
20533;SDS011;12929;56.822;26.056;2022-09-06T05:57:28;1.70;;;0.90;;
20533;SDS011;12929;56.822;26.056;2022-09-06T05:59:55;1.90;;;0.90;;
20533;SDS011;12929;56.822;26.056;2022-09-06T06:02:23;1.10;;;0.90;;
20533;SDS011;12929;56.822;26.056;2022-09-06T06:04:51;1.63;;;0.88;;
20533;SDS011;12929;56.822;26.056;2022-09-06T06:07:20;1.35;;;0.85;;
20533;SDS011;12929;56.822;26.056;2022-09-06T06:09:48;1.17;;;0.90;;
20533;SDS011;12929;56.822;26.056;2022-09-06T06:12:15;1.30;;;0.80;;
20533;SDS011;12929;56.822;26.056;2022-09-06T06:14:43;0.90;;;0.77;;
20533;SDS011;12929;56.822;26.056;2022-09-06T06:17:10;0.95;;;0.80;;
20533;SDS011;12929;56.822;26.056;2022-09-06T06:19:38;1.00;;;0.80;;
20533;SDS011;12929;56.822;26.056;2022-09-06T06:22:06;1.55;;;0.70;;
20533;SDS011;12929;56.822;26.056;2022-09-06T06:24:34;0.90;;;0.70;;
20533;SDS011;12929;56.822;26.056;2022-09-06T06:27:01;0.82;;;0.73;;
20533;SDS011;12929;56.822;26.056;2022-09-06T06:29:29;1.05;;;0.85;;
20533;SDS011;12929;56.822;26.056;2022-09-06T06:31:57;0.80;;;0.70;;
20533;SDS011;12929;56.822;26.056;2022-09-06T06:34:25;0.90;;;0.70;;
20533;SDS011;12929;56.822;26.056;2022-09-06T06:36:52;0.90;;;0.65;;
20533;SDS011;12929;56.822;26.056;2022-09-06T06:39:20;0.60;;;0.60;;
20533;SDS011;12929;56.822;26.056;2022-09-06T06:41:48;1.73;;;0.90;;
20533;SDS011;12929;56.822;26.056;2022-09-06T06:44:42;0.90;;;0.60;;
20533;SDS011;12929;56.822;26.056;2022-09-06T06:47:10;1.00;;;0.73;;
20533;SDS011;12929;56.822;26.056;2022-09-06T06:49:38;1.60;;;0.93;;
20533;SDS011;12929;56.822;26.056;2022-09-06T06:52:06;1.20;;;0.70;;
20533;SDS011;12929;56.822;26.056;2022-09-06T06:54:33;2.97;;;0.97;;
20533;SDS011;12929;56.822;26.056;2022-09-06T06:57:03;0.98;;;0.88;;
20533;SDS011;12929;56.822;26.056;2022-09-06T06:59:31;1.48;;;0.90;;
20533;SDS011;12929;56.822;26.056;2022-09-06T07:01:59;1.60;;;0.90;;
20533;SDS011;12929;56.822;26.056;2022-09-06T07:04:27;0.93;;;0.80;;
20533;SDS011;12929;56.822;26.056;2022-09-06T07:06:55;1.70;;;0.80;;
20533;SDS011;12929;56.822;26.056;2022-09-06T07:09:43;1.05;;;0.77;;
20533;SDS011;12929;56.822;26.056;2022-09-06T07:12:30;1.20;;;0.70;;
20533;SDS011;12929;56.822;26.056;2022-09-06T07:14:58;1.00;;;0.70;;
20533;SDS011;12929;56.822;26.056;2022-09-06T07:17:26;0.60;;;0.60;;
20533;SDS011;12929;56.822;26.056;2022-09-06T07:19:54;0.90;;;0.60;;
20533;SDS011;12929;56.822;26.056;2022-09-06T07:22:37;1.30;;;0.87;;
20533;SDS011;12929;56.822;26.056;2022-09-06T07:25:07;1.13;;;0.70;;
20533;SDS011;12929;56.822;26.056;2022-09-06T07:27:36;0.80;;;0.75;;
20533;SDS011;12929;56.822;26.056;2022-09-06T07:30:11;0.70;;;0.70;;
20533;SDS011;12929;56.822;26.056;2022-09-06T07:32:39;0.98;;;0.77;;
20533;SDS011;12929;56.822;26.056;2022-09-06T07:35:07;1.05;;;0.70;;
20533;SDS011;12929;56.822;26.056;2022-09-06T07:37:35;1.93;;;0.70;;
20533;SDS011;12929;56.822;26.056;2022-09-06T07:40:03;1.23;;;0.60;;
20533;SDS011;12929;56.822;26.056;2022-09-06T07:42:31;0.80;;;0.70;;
20533;SDS011;12929;56.822;26.056;2022-09-06T07:45:03;1.20;;;0.93;;
20533;SDS011;12929;56.822;26.056;2022-09-06T07:47:31;0.90;;;0.80;;
20533;SDS011;12929;56.822;26.056;2022-09-06T07:50:18;1.35;;;0.82;;
20533;SDS011;12929;56.822;26.056;2022-09-06T07:53:07;1.38;;;0.80;;
20533;SDS011;12929;56.822;26.056;2022-09-06T07:55:41;1.30;;;0.90;;
20533;SDS011;12929;56.822;26.056;2022-09-06T07:58:09;1.27;;;0.73;;
20533;SDS011;12929;56.822;26.056;2022-09-06T08:00:36;1.00;;;0.70;;
20533;SDS011;12929;56.822;26.056;2022-09-06T08:03:07;0.90;;;0.70;;
20533;SDS011;12929;56.822;26.056;2022-09-06T08:05:35;0.75;;;0.57;;
20533;SDS011;12929;56.822;26.056;2022-09-06T08:08:23;2.47;;;0.80;;
20533;SDS011;12929;56.822;26.056;2022-09-06T08:11:12;11.02;;;1.13;;
20533;SDS011;12929;56.822;26.056;2022-09-06T08:13:40;0.70;;;0.70;;
20533;SDS011;12929;56.822;26.056;2022-09-06T08:16:08;1.33;;;0.75;;
20533;SDS011;12929;56.822;26.056;2022-09-06T08:18:38;2.88;;;0.60;;
20533;SDS011;12929;56.822;26.056;2022-09-06T08:23:45;1.63;;;0.60;;
20533;SDS011;12929;56.822;26.056;2022-09-06T08:26:15;0.68;;;0.50;;
20533;SDS011;12929;56.822;26.056;2022-09-06T08:28:43;0.80;;;0.60;;
20533;SDS011;12929;56.822;26.056;2022-09-06T08:31:15;0.80;;;0.60;;
20533;SDS011;12929;56.822;26.056;2022-09-06T08:33:46;0.82;;;0.50;;
20533;SDS011;12929;56.822;26.056;2022-09-06T08:36:13;0.50;;;0.40;;
20533;SDS011;12929;56.822;26.056;2022-09-06T08:38:41;0.60;;;0.50;;
20533;SDS011;12929;56.822;26.056;2022-09-06T08:41:11;0.63;;;0.50;;
20533;SDS011;12929;56.822;26.056;2022-09-06T08:43:53;0.60;;;0.50;;
20533;SDS011;12929;56.822;26.056;2022-09-06T08:49:12;0.73;;;0.50;;
20533;SDS011;12929;56.822;26.056;2022-09-06T08:51:51;0.85;;;0.50;;
20533;SDS011;12929;56.822;26.056;2022-09-06T08:54:45;0.40;;;0.40;;
20533;SDS011;12929;56.822;26.056;2022-09-06T09:00:16;0.60;;;0.52;;
20533;SDS011;12929;56.822;26.056;2022-09-06T09:02:48;0.50;;;0.40;;
20533;SDS011;12929;56.822;26.056;2022-09-06T09:05:24;1.67;;;0.47;;
20533;SDS011;12929;56.822;26.056;2022-09-06T09:10:53;2.40;;;0.60;;
20533;SDS011;12929;56.822;26.056;2022-09-06T09:16:16;0.57;;;0.50;;
20533;SDS011;12929;56.822;26.056;2022-09-06T09:18:51;0.70;;;0.50;;
20533;SDS011;12929;56.822;26.056;2022-09-06T09:21:26;0.80;;;0.50;;
20533;SDS011;12929;56.822;26.056;2022-09-06T09:23:58;0.52;;;0.40;;
20533;SDS011;12929;56.822;26.056;2022-09-06T09:26:33;1.20;;;0.50;;
20533;SDS011;12929;56.822;26.056;2022-09-06T09:29:11;1.47;;;0.70;;
20533;SDS011;12929;56.822;26.056;2022-09-06T09:31:41;0.65;;;0.50;;
20533;SDS011;12929;56.822;26.056;2022-09-06T09:40:12;0.80;;;0.50;;
20533;SDS011;12929;56.822;26.056;2022-09-06T09:42:46;4.03;;;0.70;;
20533;SDS011;12929;56.822;26.056;2022-09-06T09:45:25;4.73;;;0.90;;
20533;SDS011;12929;56.822;26.056;2022-09-06T09:47:57;2.97;;;0.50;;
20533;SDS011;12929;56.822;26.056;2022-09-06T09:50:46;0.93;;;0.60;;
20533;SDS011;12929;56.822;26.056;2022-09-06T09:53:16;0.55;;;0.43;;
20533;SDS011;12929;56.822;26.056;2022-09-06T09:55:48;1.20;;;0.70;;
20533;SDS011;12929;56.822;26.056;2022-09-06T09:58:28;0.60;;;0.50;;
20533;SDS011;12929;56.822;26.056;2022-09-06T10:01:10;0.80;;;0.50;;
20533;SDS011;12929;56.822;26.056;2022-09-06T10:03:44;1.30;;;0.50;;
20533;SDS011;12929;56.822;26.056;2022-09-06T10:06:32;1.20;;;0.50;;
20533;SDS011;12929;56.822;26.056;2022-09-06T10:09:22;0.50;;;0.50;;
20533;SDS011;12929;56.822;26.056;2022-09-06T10:12:38;0.70;;;0.50;;
20533;SDS011;12929;56.822;26.056;2022-09-06T10:15:09;0.63;;;0.45;;
20533;SDS011;12929;56.822;26.056;2022-09-06T10:17:51;1.05;;;0.40;;
20533;SDS011;12929;56.822;26.056;2022-09-06T10:20:19;0.73;;;0.50;;
20533;SDS011;12929;56.822;26.056;2022-09-06T10:23:05;1.83;;;0.50;;
20533;SDS011;12929;56.822;26.056;2022-09-06T10:26:29;1.58;;;0.63;;
20533;SDS011;12929;56.822;26.056;2022-09-06T10:34:56;0.63;;;0.50;;
20533;SDS011;12929;56.822;26.056;2022-09-06T10:43:25;0.90;;;0.60;;
20533;SDS011;12929;56.822;26.056;2022-09-06T10:46:08;1.02;;;0.50;;
20533;SDS011;12929;56.822;26.056;2022-09-06T10:48:43;1.40;;;0.50;;
20533;SDS011;12929;56.822;26.056;2022-09-06T10:53:54;0.50;;;0.50;;
20533;SDS011;12929;56.822;26.056;2022-09-06T10:59:25;1.00;;;0.50;;
20533;SDS011;12929;56.822;26.056;2022-09-06T11:02:36;0.50;;;0.50;;
20533;SDS011;12929;56.822;26.056;2022-09-06T11:05:19;2.70;;;0.50;;
20533;SDS011;12929;56.822;26.056;2022-09-06T11:08:12;1.63;;;0.50;;
20533;SDS011;12929;56.822;26.056;2022-09-06T11:11:10;0.80;;;0.60;;
20533;SDS011;12929;56.822;26.056;2022-09-06T11:14:12;1.00;;;0.50;;
20533;SDS011;12929;56.822;26.056;2022-09-06T11:16:52;1.77;;;0.70;;
20533;SDS011;12929;56.822;26.056;2022-09-06T11:19:29;1.63;;;0.70;;
20533;SDS011;12929;56.822;26.056;2022-09-06T11:27:49;1.15;;;0.50;;
20533;SDS011;12929;56.822;26.056;2022-09-06T11:30:23;1.60;;;0.70;;
20533;SDS011;12929;56.822;26.056;2022-09-06T11:35:48;1.40;;;0.60;;
20533;SDS011;12929;56.822;26.056;2022-09-06T11:38:23;1.45;;;0.55;;
20533;SDS011;12929;56.822;26.056;2022-09-06T11:40:57;1.35;;;0.55;;
20533;SDS011;12929;56.822;26.056;2022-09-06T11:49:04;1.05;;;0.68;;
20533;SDS011;12929;56.822;26.056;2022-09-06T11:51:53;1.10;;;0.60;;
20533;SDS011;12929;56.822;26.056;2022-09-06T11:54:22;2.15;;;0.57;;
20533;SDS011;12929;56.822;26.056;2022-09-06T11:57:15;1.90;;;0.70;;
20533;SDS011;12929;56.822;26.056;2022-09-06T11:59:54;1.45;;;0.60;;
20533;SDS011;12929;56.822;26.056;2022-09-06T12:05:57;1.45;;;0.57;;
20533;SDS011;12929;56.822;26.056;2022-09-06T12:08:29;2.13;;;0.63;;
20533;SDS011;12929;56.822;26.056;2022-09-06T12:11:00;1.15;;;0.50;;
20533;SDS011;12929;56.822;26.056;2022-09-06T12:16:08;1.08;;;0.50;;
20533;SDS011;12929;56.822;26.056;2022-09-06T12:24:49;1.90;;;0.70;;
20533;SDS011;12929;56.822;26.056;2022-09-06T12:29:50;0.88;;;0.50;;
20533;SDS011;12929;56.822;26.056;2022-09-06T12:32:22;1.37;;;0.60;;
20533;SDS011;12929;56.822;26.056;2022-09-06T12:34:54;0.90;;;0.50;;
20533;SDS011;12929;56.822;26.056;2022-09-06T12:37:56;1.70;;;0.70;;
20533;SDS011;12929;56.822;26.056;2022-09-06T12:40:26;1.60;;;0.60;;
20533;SDS011;12929;56.822;26.056;2022-09-06T12:42:57;2.33;;;0.82;;
20533;SDS011;12929;56.822;26.056;2022-09-06T12:45:26;2.50;;;0.70;;
20533;SDS011;12929;56.822;26.056;2022-09-06T12:48:07;3.53;;;0.80;;
20533;SDS011;12929;56.822;26.056;2022-09-06T12:50:37;1.05;;;0.70;;
20533;SDS011;12929;56.822;26.056;2022-09-06T12:53:17;1.10;;;0.70;;
20533;SDS011;12929;56.822;26.056;2022-09-06T12:56:01;1.95;;;0.63;;
20533;SDS011;12929;56.822;26.056;2022-09-06T12:58:31;0.75;;;0.60;;
20533;SDS011;12929;56.822;26.056;2022-09-06T13:01:07;1.52;;;0.80;;
20533;SDS011;12929;56.822;26.056;2022-09-06T13:03:59;2.28;;;0.80;;
20533;SDS011;12929;56.822;26.056;2022-09-06T13:06:33;1.27;;;0.80;;
20533;SDS011;12929;56.822;26.056;2022-09-06T13:09:09;0.80;;;0.60;;
20533;SDS011;12929;56.822;26.056;2022-09-06T13:11:44;2.53;;;0.77;;
20533;SDS011;12929;56.822;26.056;2022-09-06T13:14:33;0.98;;;0.70;;
20533;SDS011;12929;56.822;26.056;2022-09-06T13:17:02;2.30;;;0.80;;
20533;SDS011;12929;56.822;26.056;2022-09-06T13:19:31;1.50;;;0.70;;
20533;SDS011;12929;56.822;26.056;2022-09-06T13:22:02;2.60;;;0.83;;
20533;SDS011;12929;56.822;26.056;2022-09-06T13:29:54;2.03;;;1.02;;
20533;SDS011;12929;56.822;26.056;2022-09-06T13:32:27;1.85;;;1.00;;
20533;SDS011;12929;56.822;26.056;2022-09-06T13:34:56;1.45;;;0.80;;
20533;SDS011;12929;56.822;26.056;2022-09-06T13:37:29;1.80;;;1.00;;
20533;SDS011;12929;56.822;26.056;2022-09-06T13:40:01;2.00;;;0.90;;
20533;SDS011;12929;56.822;26.056;2022-09-06T13:43:28;1.95;;;0.82;;
20533;SDS011;12929;56.822;26.056;2022-09-06T13:46:05;1.60;;;0.80;;
20533;SDS011;12929;56.822;26.056;2022-09-06T13:48:35;1.60;;;1.00;;
20533;SDS011;12929;56.822;26.056;2022-09-06T13:51:04;2.30;;;0.90;;
20533;SDS011;12929;56.822;26.056;2022-09-06T13:53:33;2.35;;;0.90;;
20533;SDS011;12929;56.822;26.056;2022-09-06T13:56:01;1.98;;;1.00;;
20533;SDS011;12929;56.822;26.056;2022-09-06T13:58:29;2.95;;;0.80;;
20533;SDS011;12929;56.822;26.056;2022-09-06T14:00:56;2.40;;;0.90;;
20533;SDS011;12929;56.822;26.056;2022-09-06T14:03:26;2.05;;;0.95;;
20533;SDS011;12929;56.822;26.056;2022-09-06T14:05:57;2.40;;;1.10;;
20533;SDS011;12929;56.822;26.056;2022-09-06T14:08:28;2.57;;;1.00;;
20533;SDS011;12929;56.822;26.056;2022-09-06T14:11:16;1.70;;;1.10;;
20533;SDS011;12929;56.822;26.056;2022-09-06T14:13:44;2.13;;;0.95;;
20533;SDS011;12929;56.822;26.056;2022-09-06T14:16:12;2.83;;;1.00;;
20533;SDS011;12929;56.822;26.056;2022-09-06T14:18:40;3.47;;;1.05;;
20533;SDS011;12929;56.822;26.056;2022-09-06T14:21:08;2.43;;;0.97;;
20533;SDS011;12929;56.822;26.056;2022-09-06T14:23:35;1.42;;;0.98;;
20533;SDS011;12929;56.822;26.056;2022-09-06T14:26:04;3.42;;;1.10;;
20533;SDS011;12929;56.822;26.056;2022-09-06T14:28:32;2.50;;;1.00;;
20533;SDS011;12929;56.822;26.056;2022-09-06T14:31:33;3.78;;;1.10;;
20533;SDS011;12929;56.822;26.056;2022-09-06T14:33:55;1.60;;;1.00;;
20533;SDS011;12929;56.822;26.056;2022-09-06T14:36:24;2.85;;;1.10;;
20533;SDS011;12929;56.822;26.056;2022-09-06T14:38:55;2.00;;;1.00;;
20533;SDS011;12929;56.822;26.056;2022-09-06T14:41:24;2.35;;;1.00;;
20533;SDS011;12929;56.822;26.056;2022-09-06T14:43:54;3.72;;;1.20;;
20533;SDS011;12929;56.822;26.056;2022-09-06T14:46:23;3.65;;;1.30;;
20533;SDS011;12929;56.822;26.056;2022-09-06T14:48:57;7.32;;;1.30;;
20533;SDS011;12929;56.822;26.056;2022-09-06T14:51:30;2.85;;;1.00;;
20533;SDS011;12929;56.822;26.056;2022-09-06T14:53:58;3.13;;;1.10;;
20533;SDS011;12929;56.822;26.056;2022-09-06T14:56:29;1.75;;;1.20;;
20533;SDS011;12929;56.822;26.056;2022-09-06T14:58:57;2.30;;;0.90;;
20533;SDS011;12929;56.822;26.056;2022-09-06T15:01:26;3.38;;;0.90;;
20533;SDS011;12929;56.822;26.056;2022-09-06T15:04:02;3.15;;;1.17;;
20533;SDS011;12929;56.822;26.056;2022-09-06T15:06:31;3.33;;;1.27;;
20533;SDS011;12929;56.822;26.056;2022-09-06T15:09:02;2.33;;;1.02;;
20533;SDS011;12929;56.822;26.056;2022-09-06T15:11:32;2.10;;;1.20;;
20533;SDS011;12929;56.822;26.056;2022-09-06T15:14:06;1.73;;;1.15;;
20533;SDS011;12929;56.822;26.056;2022-09-06T15:16:38;1.35;;;0.93;;
20533;SDS011;12929;56.822;26.056;2022-09-06T15:19:06;3.65;;;1.10;;
20533;SDS011;12929;56.822;26.056;2022-09-06T15:21:35;3.90;;;1.15;;
20533;SDS011;12929;56.822;26.056;2022-09-06T15:24:02;1.83;;;1.00;;
20533;SDS011;12929;56.822;26.056;2022-09-06T15:26:37;1.92;;;1.17;;
20533;SDS011;12929;56.822;26.056;2022-09-06T15:29:08;2.92;;;1.05;;
20533;SDS011;12929;56.822;26.056;2022-09-06T15:31:44;2.92;;;1.17;;
20533;SDS011;12929;56.822;26.056;2022-09-06T15:34:17;3.30;;;1.20;;
20533;SDS011;12929;56.822;26.056;2022-09-06T15:36:46;4.75;;;1.08;;
20533;SDS011;12929;56.822;26.056;2022-09-06T15:39:13;3.90;;;1.20;;
20533;SDS011;12929;56.822;26.056;2022-09-06T15:41:41;2.75;;;0.98;;
20533;SDS011;12929;56.822;26.056;2022-09-06T15:44:10;3.65;;;1.10;;
20533;SDS011;12929;56.822;26.056;2022-09-06T15:46:45;2.70;;;1.10;;
20533;SDS011;12929;56.822;26.056;2022-09-06T15:49:27;2.80;;;1.15;;
20533;SDS011;12929;56.822;26.056;2022-09-06T15:51:58;1.30;;;1.00;;
20533;SDS011;12929;56.822;26.056;2022-09-06T15:54:28;1.88;;;0.90;;
20533;SDS011;12929;56.822;26.056;2022-09-06T15:57:17;1.95;;;1.15;;
20533;SDS011;12929;56.822;26.056;2022-09-06T15:59:47;2.00;;;1.00;;
20533;SDS011;12929;56.822;26.056;2022-09-06T16:02:16;1.42;;;0.98;;
20533;SDS011;12929;56.822;26.056;2022-09-06T16:04:46;2.85;;;1.00;;
20533;SDS011;12929;56.822;26.056;2022-09-06T16:07:14;2.83;;;1.00;;
20533;SDS011;12929;56.822;26.056;2022-09-06T16:09:44;3.20;;;1.40;;
20533;SDS011;12929;56.822;26.056;2022-09-06T16:12:13;1.67;;;0.93;;
20533;SDS011;12929;56.822;26.056;2022-09-06T16:14:43;1.50;;;0.90;;
20533;SDS011;12929;56.822;26.056;2022-09-06T16:17:11;2.28;;;0.90;;
20533;SDS011;12929;56.822;26.056;2022-09-06T16:19:40;1.90;;;1.02;;
20533;SDS011;12929;56.822;26.056;2022-09-06T16:22:12;1.52;;;0.88;;
20533;SDS011;12929;56.822;26.056;2022-09-06T16:24:40;4.20;;;0.90;;
20533;SDS011;12929;56.822;26.056;2022-09-06T16:27:08;2.30;;;0.90;;
20533;SDS011;12929;56.822;26.056;2022-09-06T16:29:36;2.60;;;0.98;;
20533;SDS011;12929;56.822;26.056;2022-09-06T16:32:04;1.07;;;0.77;;
20533;SDS011;12929;56.822;26.056;2022-09-06T16:34:32;3.05;;;1.05;;
20533;SDS011;12929;56.822;26.056;2022-09-06T16:37:00;1.53;;;0.80;;
20533;SDS011;12929;56.822;26.056;2022-09-06T16:39:34;1.33;;;0.80;;
20533;SDS011;12929;56.822;26.056;2022-09-06T16:42:02;2.95;;;1.00;;
20533;SDS011;12929;56.822;26.056;2022-09-06T16:44:30;2.70;;;0.80;;
20533;SDS011;12929;56.822;26.056;2022-09-06T16:46:58;6.18;;;1.05;;
20533;SDS011;12929;56.822;26.056;2022-09-06T16:49:30;2.40;;;0.70;;
20533;SDS011;12929;56.822;26.056;2022-09-06T16:51:57;2.20;;;0.80;;